Time;durP1;ratioP1;P1;durP2;ratioP2;P2;SDS_P1;SDS_P2;PMS_P1;PMS_P2;Temp;Humidity;BMP_temperature;BMP_pressure;BME280_temperature;BME280_humidity;BME280_pressure;Samples;Min_cycle;Max_cycle;Signal;HPM_P1;HPM_P2
2021/01/17 00:00:18;;;;;;;32.30;17.50;;;;;;;-5.06;79.31;96091.67;1742301;81;21258;-80
2021/01/17 00:02:47;;;;;;;29.82;15.75;;;;;;;-5.04;79.41;96086.08;1753402;81;21138;-80
2021/01/17 00:05:15;;;;;;;25.62;14.13;;;;;;;-5.05;79.43;96091.22;1745713;80;21240;-80
2021/01/17 00:07:41;;;;;;;36.50;18.10;;;;;;;-5.11;79.21;96096.67;1747000;80;21123;-80
2021/01/17 00:10:10;;;;;;;48.35;22.73;;;;;;;-5.14;79.30;96085.01;1745177;80;21416;-79
2021/01/17 00:12:36;;;;;;;21.07;14.50;;;;;;;-5.12;79.32;96083.64;1744530;81;21147;-80
2021/01/17 00:15:09;;;;;;;32.38;16.52;;;;;;;-5.17;79.29;96091.08;1685381;83;21135;-79
2021/01/17 00:17:36;;;;;;;35.17;17.57;;;;;;;-5.17;79.29;96086.02;1748159;80;21115;-80
2021/01/17 00:20:06;;;;;;;40.30;22.32;;;;;;;-5.14;79.35;96092.15;1742097;80;21162;-80
2021/01/17 00:22:32;;;;;;;53.95;24.18;;;;;;;-5.11;79.37;96089.88;1749096;80;21114;-80
2021/01/17 00:24:58;;;;;;;31.07;17.17;;;;;;;-5.03;79.29;96089.43;1744103;80;21329;-80
2021/01/17 00:27:24;;;;;;;20.52;13.88;;;;;;;-5.04;79.16;96084.81;1744256;81;21241;-80
2021/01/17 00:29:50;;;;;;;28.17;16.07;;;;;;;-5.01;79.22;96086.34;1743561;80;21135;-79
2021/01/17 00:32:16;;;;;;;24.12;15.63;;;;;;;-5.05;79.08;96086.96;1739715;81;21194;-79
2021/01/17 00:34:44;;;;;;;32.40;18.05;;;;;;;-5.10;79.09;96081.83;1685282;83;21158;-80
2021/01/17 00:37:15;;;;;;;27.17;17.05;;;;;;;-5.11;79.27;96086.53;1751711;81;21265;-79
2021/01/17 00:39:41;;;;;;;27.47;15.37;;;;;;;-5.12;79.41;96088.71;1749584;81;21118;-80
2021/01/17 00:42:11;;;;;;;21.52;14.68;;;;;;;-5.09;79.49;96088.06;1739331;80;21119;-80
2021/01/17 00:44:38;;;;;;;29.37;17.55;;;;;;;-5.08;79.47;96082.55;1740354;81;21111;-77
2021/01/17 00:47:04;;;;;;;34.70;20.25;;;;;;;-5.10;79.54;96085.17;1752282;81;21087;-77
2021/01/17 00:49:31;;;;;;;27.05;15.70;;;;;;;-5.09;79.59;96078.38;1738260;80;21143;-77
2021/01/17 00:51:57;;;;;;;42.50;26.00;;;;;;;-5.07;79.59;96078.64;1737788;81;21460;-77
2021/01/17 00:54:23;;;;;;;21.07;15.03;;;;;;;-5.08;79.53;96077.02;1737622;81;21131;-77
2021/01/17 00:56:49;;;;;;;22.65;15.18;;;;;;;-5.08;79.62;96082.09;1711431;81;21150;-77
2021/01/17 00:59:15;;;;;;;21.48;14.87;;;;;;;-5.09;79.68;96075.39;1737531;81;21143;-77
2021/01/17 01:01:43;;;;;;;24.75;15.93;;;;;;;-5.08;79.67;96076.20;1737730;81;21159;-77
2021/01/17 01:04:11;;;;;;;21.27;14.40;;;;;;;-5.07;79.65;96068.52;1747966;80;21134;-77
2021/01/17 01:06:37;;;;;;;24.87;16.12;;;;;;;-5.07;79.63;96071.50;1751378;80;21118;-77
2021/01/17 01:09:14;;;;;;;30.72;17.92;;;;;;;-5.05;79.79;96070.49;1690056;83;21346;-77
2021/01/17 01:11:41;;;;;;;28.57;17.65;;;;;;;-5.05;79.79;96075.56;1687276;83;21650;-79
2021/01/17 01:14:07;;;;;;;24.05;15.20;;;;;;;-5.02;79.74;96065.72;1690584;83;21147;-78
2021/01/17 01:16:33;;;;;;;22.10;14.78;;;;;;;-5.01;79.78;96062.28;1765286;80;21107;-79
2021/01/17 01:19:00;;;;;;;24.20;15.32;;;;;;;-5.02;79.85;96066.53;1685780;83;21542;-79
2021/01/17 01:21:29;;;;;;;21.15;15.65;;;;;;;-5.01;79.85;96064.36;1690880;83;21151;-79
2021/01/17 01:23:56;;;;;;;21.05;15.03;;;;;;;-4.97;79.96;96060.72;1703850;83;21143;-80
2021/01/17 01:26:22;;;;;;;21.87;14.03;;;;;;;-4.97;79.99;96057.37;1693702;83;21352;-80
2021/01/17 01:28:49;;;;;;;20.65;14.30;;;;;;;-5.03;79.85;96059.03;1683366;82;21291;-80
2021/01/17 01:31:24;;;;;;;20.40;15.18;;;;;;;-5.02;80.00;96059.39;1752986;80;21121;-79
2021/01/17 01:33:51;;;;;;;21.75;15.28;;;;;;;-5.03;80.05;96054.77;1687888;83;21122;-80
2021/01/17 01:36:20;;;;;;;25.55;17.17;;;;;;;-4.99;80.09;96047.78;1765672;80;21453;-79
2021/01/17 01:38:47;;;;;;;34.75;23.50;;;;;;;-4.90;80.17;96045.93;1758844;80;21133;-79
2021/01/17 01:41:14;;;;;;;19.85;15.32;;;;;;;-4.89;80.12;96045.84;1755167;80;21897;-80
2021/01/17 01:43:40;;;;;;;22.02;16.32;;;;;;;-4.86;80.06;96044.40;1761580;80;21210;-79
2021/01/17 01:46:07;;;;;;;19.77;12.63;;;;;;;-4.85;80.05;96047.75;1749769;80;21110;-80
2021/01/17 01:48:34;;;;;;;21.27;14.40;;;;;;;-4.86;80.21;96039.33;1750486;80;21167;-79
2021/01/17 01:51:03;;;;;;;19.20;13.35;;;;;;;-4.90;80.09;96043.40;1699864;80;21421;-80
2021/01/17 01:53:30;;;;;;;18.73;13.18;;;;;;;-4.88;80.12;96042.88;1761641;80;21101;-79
2021/01/17 01:55:59;;;;;;;23.38;14.65;;;;;;;-4.87;80.19;96039.43;1758974;80;21105;-78
2021/01/17 01:58:26;;;;;;;22.55;14.70;;;;;;;-4.96;80.17;96022.25;1759150;80;21224;-78
2021/01/17 02:00:52;;;;;;;18.80;14.03;;;;;;;-4.86;80.19;96031.73;1755061;80;21343;-78
2021/01/17 02:03:18;;;;;;;18.32;13.72;;;;;;;-4.87;80.26;96033.91;1755068;80;21428;-78
2021/01/17 02:05:44;;;;;;;22.40;15.03;;;;;;;-4.86;80.21;96027.12;1755158;80;21110;-79
2021/01/17 02:08:59;;;;;;;20.35;14.47;;;;;;;-4.87;80.24;96034.36;1760108;80;21107;-78
2021/01/17 02:12:13;;;;;;;18.07;13.38;;;;;;;-4.81;80.28;96030.62;1756269;80;21357;-79
2021/01/17 02:14:53;;;;;;;17.80;13.78;;;;;;;-4.75;80.47;96026.42;1754744;80;21130;-78
2021/01/17 02:17:20;;;;;;;21.40;13.85;;;;;;;-4.78;80.24;96034.22;1752504;80;21124;-78
2021/01/17 02:20:10;;;;;;;18.55;13.43;;;;;;;-4.78;80.33;96045.63;1747458;80;21106;-78
2021/01/17 02:23:03;;;;;;;10.85;8.30;;;;;;;-4.84;80.36;96056.52;1761309;80;21924;-79
2021/01/17 02:25:36;;;;;;;10.65;8.28;;;;;;;-4.99;79.51;96060.45;1760755;80;21134;-78
2021/01/17 02:28:05;;;;;;;6.67;5.90;;;;;;;-5.19;79.04;96061.69;1760369;80;21241;-78
2021/01/17 02:30:35;;;;;;;11.22;8.15;;;;;;;-5.34;78.67;96057.55;1753765;80;21367;-78
2021/01/17 02:33:15;;;;;;;10.95;8.15;;;;;;;-5.45;78.93;96059.45;1752389;80;21154;-78
2021/01/17 02:35:41;;;;;;;11.10;8.93;;;;;;;-5.40;79.26;96058.70;1753986;81;21137;-80
2021/01/17 02:38:28;;;;;;;8.60;7.35;;;;;;;-5.33;79.33;96062.97;1696392;81;21139;-79
2021/01/17 02:41:35;;;;;;;14.65;9.13;;;;;;;-5.30;78.81;96055.18;1756106;81;21117;-78
2021/01/17 02:44:02;;;;;;;10.55;8.33;;;;;;;-5.37;78.74;96063.61;1752387;80;21134;-78
2021/01/17 02:46:29;;;;;;;14.45;8.85;;;;;;;-5.40;78.85;96065.49;1691695;84;21099;-78
2021/01/17 02:48:55;;;;;;;13.32;9.28;;;;;;;-5.39;78.76;96060.33;1704823;83;21175;-78
2021/01/17 02:51:21;;;;;;;11.97;9.23;;;;;;;-5.46;78.50;96068.77;1669746;84;21729;-78
2021/01/17 02:53:53;;;;;;;13.03;9.53;;;;;;;-5.48;78.36;96072.30;1682320;84;21444;-78
2021/01/17 02:56:19;;;;;;;12.63;9.95;;;;;;;-5.51;78.48;96077.55;1748805;81;21362;-78
2021/01/17 02:58:52;;;;;;;10.93;8.78;;;;;;;-5.55;77.95;96082.41;1728467;81;21131;-79
2021/01/17 03:01:20;;;;;;;;;;;;;;;-5.72;77.72;96087.65;1748730;81;21261;-79
2021/01/17 03:03:46;;;;;;;11.70;9.55;;;;;;;-5.82;78.08;96084.41;1722965;81;20359;-78
2021/01/17 03:06:12;;;;;;;11.28;9.68;;;;;;;-5.83;78.13;96094.62;1756926;81;21304;-79
2021/01/17 03:08:39;;;;;;;10.88;8.63;;;;;;;-5.79;78.47;96091.00;1759574;81;21127;-78
2021/01/17 03:11:05;;;;;;;12.85;8.35;;;;;;;-5.80;78.32;96086.39;1718201;80;21089;-78
2021/01/17 03:13:32;;;;;;;11.48;8.43;;;;;;;-5.78;78.25;96092.63;1756428;81;21083;-78
2021/01/17 03:15:59;;;;;;;11.30;9.08;;;;;;;-5.78;77.99;96092.63;1754095;81;21113;-78
2021/01/17 03:18:25;;;;;;;10.80;9.03;;;;;;;-5.80;78.08;96102.03;1689949;84;21138;-78
2021/01/17 03:20:51;;;;;;;10.75;8.43;;;;;;;-5.78;78.07;96100.22;1692030;83;21126;-79
2021/01/17 03:23:18;;;;;;;11.55;8.63;;;;;;;-5.80;77.95;96106.64;1721333;83;21447;-79
2021/01/17 03:25:44;;;;;;;11.18;9.05;;;;;;;-5.82;77.46;96107.18;1713643;83;21086;-78
2021/01/17 03:28:10;;;;;;;12.45;9.38;;;;;;;-5.88;77.14;96105.44;1714092;83;21113;-79
2021/01/17 03:30:36;;;;;;;11.12;8.88;;;;;;;-5.90;77.04;96103.03;1683178;83;21129;-78
2021/01/17 03:33:03;;;;;;;11.63;8.40;;;;;;;-5.87;76.91;96099.47;1690037;83;21163;-78
2021/01/17 03:35:29;;;;;;;11.80;8.93;;;;;;;-5.82;76.97;96110.16;1704681;82;21122;-79
2021/01/17 03:37:55;;;;;;;11.22;8.55;;;;;;;-5.79;76.68;96115.85;1712059;83;21151;-78
2021/01/17 03:40:22;;;;;;;10.53;8.85;;;;;;;-5.82;75.90;96129.14;1707788;83;22046;-79
2021/01/17 03:42:48;;;;;;;12.63;9.10;;;;;;;-5.93;75.65;96131.49;1708623;83;21316;-79
2021/01/17 03:45:14;;;;;;;11.50;8.53;;;;;;;-6.03;75.25;96129.92;1722590;82;21121;-79
2021/01/17 03:47:40;;;;;;;9.80;8.63;;;;;;;-6.00;75.38;96125.16;1720652;82;21129;-79
2021/01/17 03:50:09;;;;;;;10.03;7.30;;;;;;;-6.10;74.67;96117.27;1695082;83;21171;-79
2021/01/17 03:52:34;;;;;;;8.58;7.35;;;;;;;;;;1712577;83;21217;-79
2021/01/17 03:55:01;;;;;;;12.13;8.43;;;;;;;-6.33;73.73;96124.89;1709221;83;21467;-79
2021/01/17 03:57:27;;;;;;;9.95;8.60;;;;;;;-6.39;74.17;96132.80;1710961;83;21130;-79
2021/01/17 03:59:53;;;;;;;8.63;7.80;;;;;;;-6.50;74.08;96131.33;1721366;82;21090;-79
2021/01/17 04:02:20;;;;;;;12.45;10.10;;;;;;;-6.51;74.20;96137.25;1722270;82;21417;-79
2021/01/17 04:04:46;;;;;;;11.43;9.13;;;;;;;-6.61;74.21;96139.48;1694645;83;21140;-79
2021/01/17 04:07:12;;;;;;;11.45;9.00;;;;;;;-6.63;74.31;96131.17;1710863;83;21116;-79
2021/01/17 04:09:38;;;;;;;14.00;10.03;;;;;;;-6.61;74.33;96134.43;1720538;82;21126;-79
2021/01/17 04:12:06;;;;;;;11.15;8.88;;;;;;;-6.55;74.29;96135.80;1718294;82;21265;-79
2021/01/17 04:14:32;;;;;;;11.45;8.98;;;;;;;-6.66;74.14;96137.22;1721828;82;21332;-79
2021/01/17 04:16:58;;;;;;;11.18;9.65;;;;;;;-6.69;74.32;96144.94;1693247;82;21125;-79
2021/01/17 04:19:24;;;;;;;11.45;8.93;;;;;;;-6.78;74.51;96137.05;1722791;82;21890;-79
2021/01/17 04:21:50;;;;;;;15.72;10.68;;;;;;;-6.68;75.12;96137.72;1723586;82;21115;-79
2021/01/17 04:24:16;;;;;;;15.43;10.48;;;;;;;-6.68;74.49;96142.77;1707382;82;21131;-79
2021/01/17 04:26:42;;;;;;;10.88;9.20;;;;;;;-6.73;74.44;96132.11;1720132;82;21121;-79
2021/01/17 04:29:09;;;;;;;12.13;10.28;;;;;;;-6.80;74.03;96134.61;1723889;82;21950;-79
2021/01/17 04:31:41;;;;;;;14.07;10.13;;;;;;;-6.87;74.40;96133.74;1719472;82;21110;-79
2021/01/17 04:34:07;;;;;;;;;;;;;;;-6.83;74.58;96128.91;1712771;82;21426;-77
2021/01/17 04:36:33;;;;;;;14.13;9.78;;;;;;;-6.81;74.56;96130.46;1708868;82;20165;-77
2021/01/17 04:38:59;;;;;;;15.25;9.93;;;;;;;-6.85;74.28;96129.42;1743826;81;21420;-77
2021/01/17 04:41:27;;;;;;;13.65;10.13;;;;;;;-6.94;74.03;96137.50;1744211;81;21319;-76
2021/01/17 04:43:59;;;;;;;11.15;9.83;;;;;;;-7.04;73.68;96142.21;1749949;81;21296;-77
2021/01/17 04:46:27;;;;;;;13.93;9.70;;;;;;;-7.15;73.54;96140.72;1750669;81;21137;-77
2021/01/17 04:49:02;;;;;;;14.23;10.38;;;;;;;-7.23;73.46;96146.59;1748349;81;21428;-76
2021/01/17 04:51:29;;;;;;;14.40;11.15;;;;;;;-7.33;73.29;96145.80;1747458;81;21478;-77
2021/01/17 04:54:00;;;;;;;13.80;11.15;;;;;;;-7.40;73.36;96142.41;1751791;81;21403;-77
2021/01/17 04:56:30;;;;;;;12.70;10.20;;;;;;;-7.45;73.26;96149.41;1682117;83;21361;-76
2021/01/17 04:59:13;;;;;;;14.38;11.22;;;;;;;-7.54;73.46;96154.47;1748009;81;21391;-76
2021/01/17 05:01:52;;;;;;;14.05;10.58;;;;;;;-7.54;73.61;96159.52;1752697;81;21117;-77
2021/01/17 05:04:41;;;;;;;16.10;11.57;;;;;;;-7.53;73.38;96166.19;1723502;81;21138;-76
2021/01/17 05:07:16;;;;;;;13.05;11.12;;;;;;;-7.61;73.34;96166.59;1717894;81;21363;-77
2021/01/17 05:09:57;;;;;;;15.45;10.80;;;;;;;-7.69;73.03;96174.16;1748237;81;21135;-76
2021/01/17 05:12:28;;;;;;;13.88;9.80;;;;;;;-7.89;73.17;96180.18;1688574;83;21140;-76
2021/01/17 05:14:55;;;;;;;14.45;11.10;;;;;;;-8.01;73.27;96180.77;1690759;83;21117;-77
2021/01/17 05:17:23;;;;;;;23.32;12.45;;;;;;;-8.02;73.60;96182.47;1748522;81;21147;-77
2021/01/17 05:19:49;;;;;;;16.82;10.90;;;;;;;-7.97;73.90;96188.13;1749693;81;21110;-76
2021/01/17 05:22:16;;;;;;;15.38;11.70;;;;;;;-7.94;73.55;96190.95;1748129;81;21317;-76
2021/01/17 05:24:42;;;;;;;19.95;13.13;;;;;;;-8.09;73.39;96189.16;1745037;81;21322;-76
2021/01/17 05:27:08;;;;;;;21.07;13.60;;;;;;;-8.16;73.36;96194.91;1685046;84;21115;-77
2021/01/17 05:29:34;;;;;;;17.23;10.63;;;;;;;-8.18;73.79;96194.17;1685106;84;21166;-77
2021/01/17 05:32:04;;;;;;;21.42;13.05;;;;;;;-8.13;73.61;96196.05;1745348;80;21142;-77
2021/01/17 05:34:31;;;;;;;24.70;14.30;;;;;;;-8.20;73.60;96203.52;1752517;80;21248;-77
2021/01/17 05:37:05;;;;;;;19.48;12.15;;;;;;;-8.18;73.72;96210.12;1756407;80;21088;-77
2021/01/17 05:39:32;;;;;;;18.00;12.33;;;;;;;-8.15;73.91;96210.41;1750311;80;21445;-77
2021/01/17 05:42:06;;;;;;;18.35;12.80;;;;;;;-8.08;73.85;96210.95;1751634;80;21085;-77
2021/01/17 05:44:32;;;;;;;19.32;13.08;;;;;;;-8.04;73.88;96215.77;1748064;80;21093;-77
2021/01/17 05:47:05;;;;;;;18.98;13.45;;;;;;;-8.00;73.75;96214.73;1753506;80;21056;-76
2021/01/17 05:49:32;;;;;;;18.48;12.98;;;;;;;-8.02;73.25;96220.30;1696093;83;21139;-76
2021/01/17 05:52:11;;;;;;;19.87;12.88;;;;;;;-8.03;73.48;96215.33;1758560;80;21772;-78
2021/01/17 05:54:40;;;;;;;19.57;12.33;;;;;;;-8.01;73.51;96224.89;1755773;80;21302;-78
2021/01/17 05:57:23;;;;;;;20.57;13.72;;;;;;;-7.92;73.66;96227.80;1753185;80;21222;-78
2021/01/17 05:59:50;;;;;;;22.40;14.78;;;;;;;-7.91;73.34;96226.09;1746070;80;21329;-78
2021/01/17 06:02:17;;;;;;;22.37;15.03;;;;;;;-7.86;73.46;96228.76;1756654;80;21610;-78
2021/01/17 06:04:55;;;;;;;23.47;15.10;;;;;;;-7.89;72.93;96230.17;1753338;80;21319;-78
2021/01/17 06:07:23;;;;;;;23.30;14.58;;;;;;;-7.98;73.04;96237.34;1737308;80;21095;-78
2021/01/17 06:09:58;;;;;;;24.40;16.40;;;;;;;-8.09;72.93;96235.35;1749558;80;21253;-78
2021/01/17 06:12:33;;;;;;;20.27;14.40;;;;;;;-8.07;73.20;96237.36;1742330;80;21227;-79
2021/01/17 06:15:11;;;;;;;22.82;14.33;;;;;;;-8.06;73.12;96241.95;1742001;81;21233;-79
2021/01/17 06:17:47;;;;;;;23.25;14.80;;;;;;;-7.96;73.27;96250.73;1748477;81;21135;-79
2021/01/17 06:20:26;;;;;;;25.40;15.08;;;;;;;-7.88;73.21;96244.86;1746785;80;21102;-78
2021/01/17 06:22:58;;;;;;;21.77;15.45;;;;;;;-7.93;72.91;96243.02;1742046;81;21135;-78
2021/01/17 06:25:31;;;;;;;20.45;15.43;;;;;;;-8.05;72.49;96248.63;1753686;81;21119;-78
2021/01/17 06:28:11;;;;;;;24.30;16.30;;;;;;;-8.07;72.98;96256.27;1745533;81;21112;-78
2021/01/17 06:30:38;;;;;;;25.15;15.08;;;;;;;-7.94;73.24;96254.80;1743862;81;21144;-78
2021/01/17 06:33:05;;;;;;;26.62;16.57;;;;;;;-7.91;73.04;96260.95;1743217;80;21174;-78
2021/01/17 06:35:38;;;;;;;26.82;16.75;;;;;;;-7.87;73.13;96263.70;1751792;80;21380;-78
2021/01/17 06:38:20;;;;;;;28.17;16.12;;;;;;;-7.90;72.51;96267.63;1750067;80;21257;-77
2021/01/17 06:40:48;;;;;;;26.80;17.07;;;;;;;-7.95;72.66;96267.05;1759272;80;21120;-77
2021/01/17 06:43:15;;;;;;;23.42;14.90;;;;;;;-7.94;72.78;96267.41;1722720;80;21224;-77
2021/01/17 06:45:45;;;;;;;24.65;16.55;;;;;;;-7.84;72.70;96268.22;1750187;80;21148;-77
2021/01/17 06:48:22;;;;;;;22.10;15.38;;;;;;;-7.94;72.18;96266.16;1751333;80;21228;-77
2021/01/17 06:50:49;;;;;;;23.92;17.48;;;;;;;-8.11;72.14;96267.39;1749778;80;21264;-76
2021/01/17 06:53:25;;;;;;;24.30;16.70;;;;;;;-8.18;72.18;96274.40;1752770;80;21863;-77
2021/01/17 06:56:14;;;;;;;29.02;16.23;;;;;;;-8.19;72.50;96274.47;1731161;80;21059;-77
2021/01/17 06:58:38;;;;;;;29.35;17.12;;;;;;;-8.18;72.24;96265.58;1712548;83;21721;-77
2021/01/17 07:01:05;;;;;;;28.73;17.15;;;;;;;-8.26;72.24;96280.25;1711147;83;21123;-77
2021/01/17 07:03:54;;;;;;;29.92;18.50;;;;;;;-8.28;72.51;96278.25;1703451;83;21547;-77
2021/01/17 07:06:58;;;;;;;28.30;18.57;;;;;;;-8.27;72.37;96291.66;1758474;80;21136;-77
2021/01/17 07:09:49;;;;;;;33.75;20.85;;;;;;;-8.32;72.21;96294.81;1751560;80;21107;-78
2021/01/17 07:12:59;;;;;;;32.95;20.95;;;;;;;-8.40;72.25;96302.77;1751966;80;21107;-78
2021/01/17 07:15:33;;;;;;;50.03;25.68;;;;;;;-8.44;72.31;96309.28;1761066;80;21086;-78
2021/01/17 07:18:02;;;;;;;38.00;22.42;;;;;;;-8.44;72.69;96312.61;1753459;80;21108;-78
2021/01/17 07:20:35;;;;;;;50.90;25.62;;;;;;;-8.29;72.81;96322.42;1755371;80;21079;-78
2021/01/17 07:23:03;;;;;;;42.23;24.82;;;;;;;-8.28;72.23;96332.88;1766936;80;21098;-78
2021/01/17 07:25:31;;;;;;;52.93;25.43;;;;;;;-8.33;72.52;96334.77;1750302;80;21247;-78
2021/01/17 07:28:19;;;;;;;55.35;30.92;;;;;;;-8.14;72.69;96333.50;1750267;80;21130;-78
2021/01/17 07:30:52;;;;;;;49.42;32.42;;;;;;;-8.18;72.30;96332.82;1698927;84;21312;-78
2021/01/17 07:33:26;;;;;;;49.58;28.98;;;;;;;-8.12;72.21;96346.88;1751195;80;21229;-78
2021/01/17 07:35:56;;;;;;;41.53;24.35;;;;;;;-8.06;72.41;96342.36;1754259;80;21131;-78
2021/01/17 07:38:27;;;;;;;51.92;27.17;;;;;;;-7.93;72.20;96333.35;1745171;80;21134;-76
2021/01/17 07:41:05;;;;;;;43.73;24.07;;;;;;;-7.91;72.07;96332.83;1741002;80;21138;-76
2021/01/17 07:43:38;;;;;;;44.27;26.90;;;;;;;-7.94;71.73;96327.94;1742197;80;21111;-77
2021/01/17 07:46:06;;;;;;;35.10;22.20;;;;;;;-7.98;71.62;96336.95;1749806;80;21235;-76
2021/01/17 07:48:33;;;;;;;54.30;28.47;;;;;;;-7.93;71.83;96340.92;1743954;80;21079;-76
2021/01/17 07:51:01;;;;;;;42.45;25.48;;;;;;;-8.00;71.26;96344.59;1749781;80;21448;-76
2021/01/17 07:53:55;;;;;;;56.53;29.32;;;;;;;-8.16;71.24;96345.73;1745152;80;21434;-76
2021/01/17 07:56:34;;;;;;;54.60;30.68;;;;;;;-8.24;71.45;96354.53;1764619;81;21332;-76
2021/01/17 07:59:02;;;;;;;54.25;30.55;;;;;;;-8.21;71.54;96357.73;1760640;80;21240;-76
2021/01/17 08:01:38;;;;;;;53.08;29.55;;;;;;;-8.10;71.69;96358.52;1749839;80;21136;-76
2021/01/17 08:04:12;;;;;;;56.02;31.75;;;;;;;-8.06;71.45;96362.53;1746002;80;21111;-75
2021/01/17 08:09:20;;;;;;;50.17;29.00;;;;;;;-8.01;70.88;96353.48;1803697;78;22536;-75
2021/01/17 08:11:55;;;;;;;49.45;29.23;;;;;;;-8.02;70.70;96358.98;1773532;80;21089;-75
2021/01/17 08:14:36;;;;;;;43.10;24.77;;;;;;;-8.03;70.62;96361.12;1778276;79;21130;-75
2021/01/17 08:17:18;;;;;;;46.18;24.72;;;;;;;-7.99;70.58;96367.66;1773549;80;22359;-75
2021/01/17 08:19:56;;;;;;;46.20;27.77;;;;;;;-7.91;70.48;96368.59;1787022;79;21125;-76
2021/01/17 08:22:28;;;;;;;51.73;27.32;;;;;;;-7.83;70.51;96369.48;1775808;80;21110;-75
2021/01/17 08:25:02;;;;;;;48.50;28.80;;;;;;;-7.84;70.29;96376.23;1719979;82;21125;-76
2021/01/17 08:27:32;;;;;;;46.25;29.63;;;;;;;-7.84;69.90;96372.89;1729193;81;21194;-76
2021/01/17 08:30:13;;;;;;;58.90;32.55;;;;;;;-7.91;70.11;96371.92;1726662;81;21143;-76
2021/01/17 08:32:44;;;;;;;56.42;30.43;;;;;;;-7.75;70.28;96375.02;1720758;82;21393;-76
2021/01/17 08:35:24;;;;;;;50.58;31.35;;;;;;;-7.64;70.35;96382.47;1725630;81;21374;-77
2021/01/17 08:38:12;;;;;;;53.23;30.90;;;;;;;-7.48;70.19;96382.57;1715569;82;21192;-78
2021/01/17 08:40:45;;;;;;;52.53;30.72;;;;;;;-7.41;69.95;96378.04;1747656;81;21101;-77
2021/01/17 08:43:13;;;;;;;59.63;33.75;;;;;;;-7.35;69.90;96382.34;1744738;81;21090;-77
2021/01/17 08:45:44;;;;;;;57.38;33.10;;;;;;;-7.22;69.84;96382.58;1696016;83;21150;-78
2021/01/17 08:48:21;;;;;;;68.70;37.58;;;;;;;-7.08;69.65;96390.76;1746266;81;21133;-75
2021/01/17 08:50:57;;;;;;;77.55;39.33;;;;;;;-7.15;69.16;96394.48;1748211;81;21098;-79
2021/01/17 08:53:32;;;;;;;64.92;35.75;;;;;;;-7.06;68.90;96400.34;1753510;81;21109;-76
2021/01/17 08:56:15;;;;;;;59.98;34.63;;;;;;;-7.11;68.69;96406.88;1750083;81;21121;-75
2021/01/17 08:58:48;;;;;;;65.62;37.85;;;;;;;-7.09;68.99;96407.62;1706701;81;21256;-75
2021/01/17 09:01:16;;;;;;;62.67;35.98;;;;;;;-7.21;68.09;96410.72;1724228;81;21327;-75
2021/01/17 09:03:49;;;;;;;74.03;36.55;;;;;;;-7.45;67.96;96413.16;1716735;83;21360;-75
2021/01/17 09:06:21;;;;;;;72.40;40.60;;;;;;;-7.54;68.61;96413.13;1719685;82;21147;-75
2021/01/17 09:08:57;;;;;;;72.20;38.75;;;;;;;-7.36;68.80;96428.67;1722737;82;21293;-75
2021/01/17 09:11:37;;;;;;;55.95;32.10;;;;;;;-7.36;68.80;96428.67;1770401;80;21372;-75
2021/01/17 09:14:15;;;;;;;65.75;33.15;;;;;;;-7.40;68.42;96432.23;1749423;80;21217;-75
2021/01/17 09:16:59;;;;;;;71.53;39.35;;;;;;;-7.39;68.33;96433.05;1764376;80;21141;-77
2021/01/17 09:19:34;;;;;;;67.10;35.75;;;;;;;-7.34;68.47;96433.64;1778544;80;21123;-76
2021/01/17 09:22:05;;;;;;;63.68;35.50;;;;;;;-7.18;68.94;96438.80;1763659;80;21090;-77
2021/01/17 09:24:34;;;;;;;69.80;37.35;;;;;;;-7.19;67.85;96446.00;1756910;80;21063;-76
2021/01/17 09:27:03;;;;;;;59.55;34.98;;;;;;;-7.23;68.20;96449.56;1761184;80;21114;-76
2021/01/17 09:29:34;;;;;;;53.60;29.42;;;;;;;-7.30;67.71;96448.59;1758911;80;21103;-76
2021/01/17 09:32:08;;;;;;;45.85;29.32;;;;;;;-7.42;67.34;96464.30;1757946;80;21106;-76
2021/01/17 09:34:40;;;;;;;60.48;32.42;;;;;;;-7.61;67.62;96466.85;1735253;82;21106;-76
2021/01/17 09:37:12;;;;;;;66.02;36.55;;;;;;;-7.57;68.49;96462.03;1765271;80;21467;-76
2021/01/17 09:39:46;;;;;;;87.00;45.53;;;;;;;-7.36;68.67;96460.67;1741177;80;21086;-76
2021/01/17 09:42:14;;;;;;;104.53;49.45;;;;;;;-7.23;68.54;96464.27;1708722;83;21733;-76
2021/01/17 09:44:42;;;;;;;94.25;46.50;;;;;;;-7.10;68.06;96461.99;1757473;80;21511;-76
2021/01/17 09:47:16;;;;;;;72.50;39.13;;;;;;;-7.01;68.08;96469.12;1768632;80;21110;-76
2021/01/17 09:49:42;;;;;;;69.32;36.68;;;;;;;-6.98;67.97;96467.73;1748810;80;21114;-76
2021/01/17 09:52:18;;;;;;;63.50;36.08;;;;;;;-6.96;68.00;96468.47;1754415;80;21324;-76
2021/01/17 09:54:49;;;;;;;57.13;33.30;;;;;;;-6.90;67.92;96463.12;1759450;80;21117;-76
2021/01/17 09:57:21;;;;;;;55.15;31.52;;;;;;;-6.85;68.00;96470.02;1730671;80;21154;-76
2021/01/17 09:59:50;;;;;;;51.37;31.23;;;;;;;-6.77;67.86;96471.75;1772698;80;21109;-75
2021/01/17 10:02:24;;;;;;;57.30;30.00;;;;;;;-6.77;67.61;96478.06;1754620;80;21137;-75
2021/01/17 10:04:51;;;;;;;63.05;34.85;;;;;;;-6.85;67.60;96471.73;1765273;80;21141;-76
2021/01/17 10:07:20;;;;;;;62.85;35.48;;;;;;;-6.78;67.73;96478.14;1758380;80;21177;-77
2021/01/17 10:09:48;;;;;;;52.78;28.90;;;;;;;-6.67;67.68;96480.98;1782960;80;21109;-77
2021/01/17 10:12:21;;;;;;;50.20;28.40;;;;;;;-6.67;67.49;96481.80;1719045;82;21117;-76
2021/01/17 10:14:48;;;;;;;44.18;24.90;;;;;;;-6.61;67.46;96483.64;1784800;80;21082;-76
2021/01/17 10:17:14;;;;;;;49.85;30.05;;;;;;;-6.42;67.58;96480.58;1781825;80;21079;-77
2021/01/17 10:19:40;;;;;;;53.98;28.90;;;;;;;-6.18;67.25;96482.35;1775685;80;21108;-77
2021/01/17 10:22:11;;;;;;;46.50;27.48;;;;;;;-5.95;67.25;96483.70;1774285;80;21114;-77
2021/01/17 10:24:37;;;;;;;42.35;24.23;;;;;;;-5.70;67.08;96485.73;1714803;82;21286;-77
2021/01/17 10:27:06;;;;;;;46.05;26.10;;;;;;;-5.63;66.69;96487.88;1755708;80;21079;-77
2021/01/17 10:29:35;;;;;;;46.13;26.10;;;;;;;-5.56;66.39;96486.65;1772664;80;21129;-77
2021/01/17 10:32:03;;;;;;;42.70;25.77;;;;;;;-5.60;66.19;96486.45;1784826;80;21126;-77
2021/01/17 10:34:34;;;;;;;52.45;27.60;;;;;;;-5.58;66.18;96491.43;1775842;80;21135;-77
2021/01/17 10:37:03;;;;;;;48.58;26.97;;;;;;;-5.64;65.41;96490.50;1778843;80;21962;-76
2021/01/17 10:39:30;;;;;;;55.00;30.43;;;;;;;-5.99;65.52;96472.11;1773670;80;21126;-76
2021/01/17 10:42:06;;;;;;;48.50;27.95;;;;;;;-6.01;65.67;96496.67;1781959;80;21121;-76
2021/01/17 10:44:38;;;;;;;49.23;26.52;;;;;;;-6.26;65.61;96491.56;1739865;80;21156;-77
2021/01/17 10:47:19;;;;;;;56.50;30.32;;;;;;;-6.36;66.01;96494.98;1779821;80;21106;-77
2021/01/17 10:49:45;;;;;;;48.87;30.05;;;;;;;-6.55;65.56;96489.66;1774819;80;21280;-75
2021/01/17 10:52:22;;;;;;;61.02;32.85;;;;;;;-6.52;66.65;96488.23;1731084;80;21106;-75
2021/01/17 10:54:48;;;;;;;51.20;30.08;;;;;;;-6.49;65.66;96491.45;1781426;80;21344;-75
2021/01/17 10:57:14;;;;;;;42.98;25.88;;;;;;;-6.46;66.06;96493.01;1669072;84;21131;-75
2021/01/17 10:59:40;;;;;;;32.30;19.50;;;;;;;-6.42;65.92;96497.83;1755760;80;21097;-75
2021/01/17 11:02:06;;;;;;;46.05;25.75;;;;;;;-6.45;65.19;96494.64;1772139;80;21118;-75
2021/01/17 11:04:40;;;;;;;44.60;26.05;;;;;;;-6.44;65.69;96493.75;1763331;80;21507;-77
2021/01/17 11:07:07;;;;;;;50.10;28.73;;;;;;;-6.39;65.83;96500.20;1758031;80;21233;-77
2021/01/17 11:09:34;;;;;;;52.13;26.95;;;;;;;-6.39;66.00;96503.18;1774402;80;22020;-78
2021/01/17 11:12:00;;;;;;;53.85;30.57;;;;;;;-6.47;65.31;96499.78;1766760;80;21109;-78
2021/01/17 11:14:31;;;;;;;47.50;27.22;;;;;;;-6.65;65.33;96504.47;1777170;80;21109;-79
2021/01/17 11:16:59;;;;;;;58.65;33.35;;;;;;;-6.75;65.64;96491.89;1748621;81;21070;-76
2021/01/17 11:19:33;;;;;;;72.22;36.53;;;;;;;-6.73;66.48;96491.36;1748157;81;21113;-76
2021/01/17 11:22:00;;;;;;;68.15;35.20;;;;;;;-6.68;66.33;96494.48;1757491;81;21527;-76
2021/01/17 11:24:35;;;;;;;54.15;31.82;;;;;;;-6.63;66.21;96501.86;1761349;80;21113;-76
2021/01/17 11:27:15;;;;;;;58.97;32.97;;;;;;;-6.69;66.36;96501.69;1759791;81;21142;-78
2021/01/17 11:29:43;;;;;;;62.15;32.75;;;;;;;-6.66;66.76;96499.86;1748116;80;21744;-78
2021/01/17 11:32:10;;;;;;;60.35;33.28;;;;;;;-6.54;66.86;96505.19;1737865;80;21135;-78
2021/01/17 11:34:39;;;;;;;60.17;32.05;;;;;;;-6.44;66.74;96512.27;1756342;80;21122;-78
2021/01/17 11:37:05;;;;;;;62.83;31.27;;;;;;;-6.28;67.04;96518.65;1766028;80;21116;-78
2021/01/17 11:39:32;;;;;;;57.33;31.02;;;;;;;-6.14;66.61;96519.23;1750942;81;21204;-78